sensor_id;sensor_type;location;lat;lon;timestamp;P1;durP1;ratioP1;P2;durP2;ratioP2
20229;SDS011;12195;55.790;37.572;2022-12-29T00:02:07;4.42;;;1.77;;
20229;SDS011;12195;55.790;37.572;2022-12-29T00:04:39;2.65;;;1.47;;
20229;SDS011;12195;55.790;37.572;2022-12-29T00:07:11;4.47;;;1.82;;
20229;SDS011;12195;55.790;37.572;2022-12-29T00:09:43;5.85;;;1.90;;
20229;SDS011;12195;55.790;37.572;2022-12-29T00:12:15;5.80;;;1.52;;
20229;SDS011;12195;55.790;37.572;2022-12-29T00:14:47;3.83;;;1.50;;
20229;SDS011;12195;55.790;37.572;2022-12-29T00:17:36;4.25;;;1.60;;
20229;SDS011;12195;55.790;37.572;2022-12-29T00:20:08;3.10;;;1.30;;
20229;SDS011;12195;55.790;37.572;2022-12-29T00:22:58;2.98;;;1.30;;
20229;SDS011;12195;55.790;37.572;2022-12-29T00:25:47;5.17;;;1.70;;
20229;SDS011;12195;55.790;37.572;2022-12-29T00:28:37;5.92;;;1.75;;
20229;SDS011;12195;55.790;37.572;2022-12-29T00:31:26;5.60;;;0.93;;
20229;SDS011;12195;55.790;37.572;2022-12-29T00:34:16;15.20;;;1.57;;
20229;SDS011;12195;55.790;37.572;2022-12-29T00:37:06;6.25;;;1.22;;
20229;SDS011;12195;55.790;37.572;2022-12-29T00:39:38;5.03;;;1.00;;
20229;SDS011;12195;55.790;37.572;2022-12-29T00:42:28;4.75;;;1.17;;
20229;SDS011;12195;55.790;37.572;2022-12-29T00:45:17;2.02;;;0.90;;
20229;SDS011;12195;55.790;37.572;2022-12-29T00:47:50;1.70;;;0.98;;
20229;SDS011;12195;55.790;37.572;2022-12-29T00:50:22;3.02;;;1.57;;
20229;SDS011;12195;55.790;37.572;2022-12-29T00:52:54;4.60;;;1.77;;
20229;SDS011;12195;55.790;37.572;2022-12-29T00:55:26;6.37;;;1.40;;
20229;SDS011;12195;55.790;37.572;2022-12-29T00:57:58;11.12;;;1.72;;
20229;SDS011;12195;55.790;37.572;2022-12-29T01:00:30;12.37;;;1.50;;
20229;SDS011;12195;55.790;37.572;2022-12-29T01:03:03;6.17;;;1.40;;
20229;SDS011;12195;55.790;37.572;2022-12-29T01:05:38;4.87;;;1.35;;
20229;SDS011;12195;55.790;37.572;2022-12-29T01:08:10;2.95;;;1.17;;
20229;SDS011;12195;55.790;37.572;2022-12-29T01:10:42;4.97;;;1.27;;
20229;SDS011;12195;55.790;37.572;2022-12-29T01:13:14;4.95;;;1.20;;
20229;SDS011;12195;55.790;37.572;2022-12-29T01:15:50;8.60;;;1.67;;
20229;SDS011;12195;55.790;37.572;2022-12-29T01:18:23;5.03;;;1.60;;
20229;SDS011;12195;55.790;37.572;2022-12-29T01:21:00;7.62;;;1.32;;
20229;SDS011;12195;55.790;37.572;2022-12-29T01:23:33;3.92;;;1.00;;
20229;SDS011;12195;55.790;37.572;2022-12-29T01:26:14;3.30;;;1.20;;
20229;SDS011;12195;55.790;37.572;2022-12-29T01:28:46;4.08;;;0.78;;
20229;SDS011;12195;55.790;37.572;2022-12-29T01:31:19;2.83;;;0.95;;
20229;SDS011;12195;55.790;37.572;2022-12-29T01:33:51;6.65;;;1.20;;
20229;SDS011;12195;55.790;37.572;2022-12-29T01:36:23;7.85;;;1.07;;
20229;SDS011;12195;55.790;37.572;2022-12-29T01:38:55;0.93;;;0.40;;
20229;SDS011;12195;55.790;37.572;2022-12-29T01:41:28;4.42;;;1.52;;
20229;SDS011;12195;55.790;37.572;2022-12-29T01:44:39;1.55;;;1.00;;
20229;SDS011;12195;55.790;37.572;2022-12-29T01:46:54;5.50;;;0.70;;
20229;SDS011;12195;55.790;37.572;2022-12-29T01:49:26;2.05;;;0.85;;
20229;SDS011;12195;55.790;37.572;2022-12-29T01:52:00;2.50;;;0.65;;
20229;SDS011;12195;55.790;37.572;2022-12-29T01:54:36;3.77;;;1.40;;
20229;SDS011;12195;55.790;37.572;2022-12-29T01:57:14;3.77;;;1.12;;
20229;SDS011;12195;55.790;37.572;2022-12-29T01:59:46;2.87;;;1.17;;
20229;SDS011;12195;55.790;37.572;2022-12-29T02:02:19;9.10;;;1.67;;
20229;SDS011;12195;55.790;37.572;2022-12-29T02:04:51;4.55;;;1.10;;
20229;SDS011;12195;55.790;37.572;2022-12-29T02:07:27;4.15;;;1.10;;
20229;SDS011;12195;55.790;37.572;2022-12-29T02:09:59;7.60;;;1.65;;
20229;SDS011;12195;55.790;37.572;2022-12-29T02:15:05;5.83;;;1.42;;
20229;SDS011;12195;55.790;37.572;2022-12-29T02:17:41;5.00;;;1.20;;
20229;SDS011;12195;55.790;37.572;2022-12-29T02:23:30;3.98;;;1.22;;
20229;SDS011;12195;55.790;37.572;2022-12-29T02:29:33;3.62;;;1.35;;
20229;SDS011;12195;55.790;37.572;2022-12-29T02:32:20;9.33;;;1.92;;
20229;SDS011;12195;55.790;37.572;2022-12-29T02:37:56;4.92;;;1.37;;
20229;SDS011;12195;55.790;37.572;2022-12-29T02:40:37;6.17;;;1.45;;
20229;SDS011;12195;55.790;37.572;2022-12-29T02:45:57;7.03;;;1.10;;
20229;SDS011;12195;55.790;37.572;2022-12-29T02:48:46;3.58;;;1.20;;
20229;SDS011;12195;55.790;37.572;2022-12-29T02:51:19;1.40;;;0.60;;
20229;SDS011;12195;55.790;37.572;2022-12-29T02:53:56;10.78;;;2.00;;
20229;SDS011;12195;55.790;37.572;2022-12-29T02:56:48;7.10;;;1.45;;
20229;SDS011;12195;55.790;37.572;2022-12-29T02:59:20;4.58;;;1.32;;
20229;SDS011;12195;55.790;37.572;2022-12-29T03:02:16;8.10;;;1.47;;
20229;SDS011;12195;55.790;37.572;2022-12-29T03:10:33;3.15;;;0.95;;
20229;SDS011;12195;55.790;37.572;2022-12-29T03:13:12;5.45;;;1.40;;
20229;SDS011;12195;55.790;37.572;2022-12-29T03:16:14;11.20;;;1.82;;
20229;SDS011;12195;55.790;37.572;2022-12-29T03:21:41;4.80;;;1.57;;
20229;SDS011;12195;55.790;37.572;2022-12-29T03:24:35;4.12;;;1.50;;
20229;SDS011;12195;55.790;37.572;2022-12-29T03:27:10;6.62;;;1.45;;
20229;SDS011;12195;55.790;37.572;2022-12-29T03:29:47;9.40;;;1.22;;
20229;SDS011;12195;55.790;37.572;2022-12-29T03:32:36;4.37;;;1.50;;
20229;SDS011;12195;55.790;37.572;2022-12-29T03:35:03;6.97;;;1.47;;
20229;SDS011;12195;55.790;37.572;2022-12-29T03:37:39;7.08;;;1.67;;
20229;SDS011;12195;55.790;37.572;2022-12-29T03:40:16;12.18;;;2.37;;
20229;SDS011;12195;55.790;37.572;2022-12-29T03:42:49;16.77;;;3.12;;
20229;SDS011;12195;55.790;37.572;2022-12-29T03:45:24;6.22;;;1.90;;
20229;SDS011;12195;55.790;37.572;2022-12-29T03:47:56;12.63;;;2.15;;
20229;SDS011;12195;55.790;37.572;2022-12-29T03:50:29;7.47;;;1.72;;
20229;SDS011;12195;55.790;37.572;2022-12-29T03:53:02;13.35;;;2.10;;
20229;SDS011;12195;55.790;37.572;2022-12-29T03:55:34;3.40;;;1.50;;
20229;SDS011;12195;55.790;37.572;2022-12-29T03:58:06;6.17;;;1.87;;
20229;SDS011;12195;55.790;37.572;2022-12-29T04:00:54;7.33;;;1.47;;
20229;SDS011;12195;55.790;37.572;2022-12-29T04:03:28;11.68;;;2.15;;
20229;SDS011;12195;55.790;37.572;2022-12-29T04:06:00;13.65;;;1.60;;
20229;SDS011;12195;55.790;37.572;2022-12-29T04:08:34;6.90;;;1.90;;
20229;SDS011;12195;55.790;37.572;2022-12-29T04:11:07;4.85;;;1.70;;
20229;SDS011;12195;55.790;37.572;2022-12-29T04:13:40;9.88;;;2.10;;
20229;SDS011;12195;55.790;37.572;2022-12-29T04:16:15;13.32;;;3.40;;
20229;SDS011;12195;55.790;37.572;2022-12-29T04:18:47;13.45;;;2.27;;
20229;SDS011;12195;55.790;37.572;2022-12-29T04:21:19;5.80;;;2.42;;
20229;SDS011;12195;55.790;37.572;2022-12-29T04:23:51;19.67;;;7.28;;
20229;SDS011;12195;55.790;37.572;2022-12-29T04:26:23;5.67;;;1.70;;
20229;SDS011;12195;55.790;37.572;2022-12-29T04:28:57;5.08;;;1.60;;
20229;SDS011;12195;55.790;37.572;2022-12-29T04:31:43;6.47;;;1.52;;
20229;SDS011;12195;55.790;37.572;2022-12-29T04:34:16;10.80;;;2.37;;
20229;SDS011;12195;55.790;37.572;2022-12-29T04:36:48;6.42;;;2.00;;
20229;SDS011;12195;55.790;37.572;2022-12-29T04:39:21;14.18;;;2.30;;
20229;SDS011;12195;55.790;37.572;2022-12-29T04:41:54;5.95;;;2.02;;
20229;SDS011;12195;55.790;37.572;2022-12-29T04:44:27;5.05;;;1.42;;
20229;SDS011;12195;55.790;37.572;2022-12-29T04:47:11;9.50;;;2.50;;
20229;SDS011;12195;55.790;37.572;2022-12-29T04:49:50;5.12;;;1.87;;
20229;SDS011;12195;55.790;37.572;2022-12-29T04:52:24;5.28;;;1.90;;
20229;SDS011;12195;55.790;37.572;2022-12-29T04:54:57;7.62;;;2.20;;
20229;SDS011;12195;55.790;37.572;2022-12-29T04:57:30;11.00;;;2.37;;
20229;SDS011;12195;55.790;37.572;2022-12-29T05:00:03;7.73;;;2.50;;
20229;SDS011;12195;55.790;37.572;2022-12-29T05:02:37;10.70;;;1.90;;
20229;SDS011;12195;55.790;37.572;2022-12-29T05:05:11;8.63;;;2.47;;
20229;SDS011;12195;55.790;37.572;2022-12-29T05:07:46;6.50;;;1.85;;
20229;SDS011;12195;55.790;37.572;2022-12-29T05:10:18;8.18;;;2.17;;
20229;SDS011;12195;55.790;37.572;2022-12-29T05:12:53;7.70;;;2.45;;
20229;SDS011;12195;55.790;37.572;2022-12-29T05:15:25;5.72;;;2.02;;
20229;SDS011;12195;55.790;37.572;2022-12-29T05:17:57;11.68;;;1.85;;
20229;SDS011;12195;55.790;37.572;2022-12-29T05:20:31;6.10;;;1.50;;
20229;SDS011;12195;55.790;37.572;2022-12-29T05:23:05;9.75;;;2.02;;
20229;SDS011;12195;55.790;37.572;2022-12-29T05:25:37;8.98;;;2.15;;
20229;SDS011;12195;55.790;37.572;2022-12-29T05:30:49;6.87;;;2.00;;
20229;SDS011;12195;55.790;37.572;2022-12-29T05:33:22;8.43;;;2.30;;
20229;SDS011;12195;55.790;37.572;2022-12-29T05:35:55;8.10;;;2.25;;
20229;SDS011;12195;55.790;37.572;2022-12-29T05:38:27;11.70;;;2.70;;
20229;SDS011;12195;55.790;37.572;2022-12-29T05:41:01;2.83;;;1.92;;
20229;SDS011;12195;55.790;37.572;2022-12-29T05:43:51;10.20;;;2.72;;
20229;SDS011;12195;55.790;37.572;2022-12-29T05:46:34;6.00;;;2.00;;
20229;SDS011;12195;55.790;37.572;2022-12-29T05:49:11;6.62;;;2.05;;
20229;SDS011;12195;55.790;37.572;2022-12-29T05:52:03;5.28;;;1.80;;
20229;SDS011;12195;55.790;37.572;2022-12-29T05:54:36;7.28;;;1.65;;
20229;SDS011;12195;55.790;37.572;2022-12-29T05:57:10;5.47;;;2.30;;
20229;SDS011;12195;55.790;37.572;2022-12-29T06:02:16;7.00;;;1.90;;
20229;SDS011;12195;55.790;37.572;2022-12-29T06:04:49;6.00;;;2.40;;
20229;SDS011;12195;55.790;37.572;2022-12-29T06:07:21;11.15;;;3.52;;
20229;SDS011;12195;55.790;37.572;2022-12-29T06:09:54;17.92;;;4.05;;
20229;SDS011;12195;55.790;37.572;2022-12-29T06:12:29;6.35;;;2.55;;
20229;SDS011;12195;55.790;37.572;2022-12-29T06:15:02;10.05;;;3.25;;
20229;SDS011;12195;55.790;37.572;2022-12-29T06:17:35;6.90;;;2.90;;
20229;SDS011;12195;55.790;37.572;2022-12-29T06:20:08;10.25;;;3.17;;
20229;SDS011;12195;55.790;37.572;2022-12-29T06:22:40;9.57;;;3.30;;
20229;SDS011;12195;55.790;37.572;2022-12-29T06:25:14;12.73;;;4.30;;
20229;SDS011;12195;55.790;37.572;2022-12-29T06:27:47;7.78;;;2.85;;
20229;SDS011;12195;55.790;37.572;2022-12-29T06:30:19;6.83;;;2.35;;
20229;SDS011;12195;55.790;37.572;2022-12-29T06:32:51;4.22;;;2.45;;
20229;SDS011;12195;55.790;37.572;2022-12-29T06:35:26;10.18;;;2.62;;
20229;SDS011;12195;55.790;37.572;2022-12-29T06:37:58;6.70;;;2.12;;
20229;SDS011;12195;55.790;37.572;2022-12-29T06:40:32;6.95;;;2.25;;
20229;SDS011;12195;55.790;37.572;2022-12-29T06:43:06;9.68;;;2.98;;
20229;SDS011;12195;55.790;37.572;2022-12-29T06:45:41;13.25;;;3.52;;
20229;SDS011;12195;55.790;37.572;2022-12-29T06:48:15;17.15;;;3.80;;
20229;SDS011;12195;55.790;37.572;2022-12-29T06:50:47;9.35;;;2.00;;
20229;SDS011;12195;55.790;37.572;2022-12-29T06:53:19;5.60;;;2.37;;
20229;SDS011;12195;55.790;37.572;2022-12-29T06:55:52;8.68;;;2.42;;
20229;SDS011;12195;55.790;37.572;2022-12-29T06:58:24;11.03;;;2.90;;
20229;SDS011;12195;55.790;37.572;2022-12-29T07:00:57;8.70;;;3.12;;
20229;SDS011;12195;55.790;37.572;2022-12-29T07:03:30;9.18;;;3.65;;
20229;SDS011;12195;55.790;37.572;2022-12-29T07:06:03;11.33;;;3.20;;
20229;SDS011;12195;55.790;37.572;2022-12-29T07:08:36;6.08;;;2.33;;
20229;SDS011;12195;55.790;37.572;2022-12-29T07:11:09;10.82;;;3.22;;
20229;SDS011;12195;55.790;37.572;2022-12-29T07:13:41;5.17;;;2.42;;
20229;SDS011;12195;55.790;37.572;2022-12-29T07:16:14;6.47;;;3.00;;
20229;SDS011;12195;55.790;37.572;2022-12-29T07:18:46;11.48;;;2.95;;
20229;SDS011;12195;55.790;37.572;2022-12-29T07:21:19;11.20;;;3.15;;
20229;SDS011;12195;55.790;37.572;2022-12-29T07:23:53;7.40;;;2.72;;
20229;SDS011;12195;55.790;37.572;2022-12-29T07:26:25;8.20;;;2.92;;
20229;SDS011;12195;55.790;37.572;2022-12-29T07:29:00;7.17;;;2.90;;
20229;SDS011;12195;55.790;37.572;2022-12-29T07:31:33;9.73;;;2.25;;
20229;SDS011;12195;55.790;37.572;2022-12-29T07:34:05;9.23;;;2.60;;
20229;SDS011;12195;55.790;37.572;2022-12-29T07:36:39;8.28;;;2.22;;
20229;SDS011;12195;55.790;37.572;2022-12-29T07:39:11;7.05;;;1.77;;
20229;SDS011;12195;55.790;37.572;2022-12-29T07:41:43;5.78;;;2.25;;
20229;SDS011;12195;55.790;37.572;2022-12-29T07:44:17;11.20;;;2.12;;
20229;SDS011;12195;55.790;37.572;2022-12-29T07:46:57;6.03;;;2.20;;
20229;SDS011;12195;55.790;37.572;2022-12-29T07:49:29;15.85;;;3.30;;
20229;SDS011;12195;55.790;37.572;2022-12-29T07:52:01;7.15;;;2.60;;
20229;SDS011;12195;55.790;37.572;2022-12-29T07:54:34;12.47;;;3.87;;
20229;SDS011;12195;55.790;37.572;2022-12-29T07:57:06;10.60;;;2.72;;
20229;SDS011;12195;55.790;37.572;2022-12-29T07:59:39;6.40;;;1.70;;
20229;SDS011;12195;55.790;37.572;2022-12-29T08:02:11;8.43;;;2.12;;
20229;SDS011;12195;55.790;37.572;2022-12-29T08:04:44;4.45;;;2.12;;
20229;SDS011;12195;55.790;37.572;2022-12-29T08:07:16;233.32;;;34.70;;
20229;SDS011;12195;55.790;37.572;2022-12-29T08:09:48;11.90;;;3.17;;
20229;SDS011;12195;55.790;37.572;2022-12-29T08:12:21;10.05;;;2.80;;
20229;SDS011;12195;55.790;37.572;2022-12-29T08:14:53;15.80;;;2.98;;
20229;SDS011;12195;55.790;37.572;2022-12-29T08:17:26;8.45;;;2.87;;
20229;SDS011;12195;55.790;37.572;2022-12-29T08:19:59;7.80;;;3.15;;
20229;SDS011;12195;55.790;37.572;2022-12-29T08:22:32;7.47;;;3.10;;
20229;SDS011;12195;55.790;37.572;2022-12-29T08:25:04;9.43;;;2.95;;
20229;SDS011;12195;55.790;37.572;2022-12-29T08:27:37;10.32;;;3.27;;
20229;SDS011;12195;55.790;37.572;2022-12-29T08:30:10;8.50;;;3.55;;
20229;SDS011;12195;55.790;37.572;2022-12-29T08:32:42;3.50;;;1.70;;
20229;SDS011;12195;55.790;37.572;2022-12-29T08:35:15;14.33;;;3.72;;
20229;SDS011;12195;55.790;37.572;2022-12-29T08:37:48;7.35;;;3.10;;
20229;SDS011;12195;55.790;37.572;2022-12-29T08:40:21;8.43;;;3.80;;
20229;SDS011;12195;55.790;37.572;2022-12-29T08:42:54;7.53;;;3.20;;
20229;SDS011;12195;55.790;37.572;2022-12-29T08:45:27;8.68;;;3.95;;
20229;SDS011;12195;55.790;37.572;2022-12-29T08:47:59;13.05;;;4.10;;
20229;SDS011;12195;55.790;37.572;2022-12-29T08:50:31;12.93;;;4.12;;
20229;SDS011;12195;55.790;37.572;2022-12-29T08:53:03;9.08;;;4.33;;
20229;SDS011;12195;55.790;37.572;2022-12-29T08:55:36;9.38;;;4.50;;
20229;SDS011;12195;55.790;37.572;2022-12-29T08:58:09;23.07;;;4.90;;
20229;SDS011;12195;55.790;37.572;2022-12-29T09:00:44;10.45;;;4.42;;
20229;SDS011;12195;55.790;37.572;2022-12-29T09:03:16;20.75;;;5.47;;
20229;SDS011;12195;55.790;37.572;2022-12-29T09:05:51;10.05;;;4.12;;
20229;SDS011;12195;55.790;37.572;2022-12-29T09:08:24;15.48;;;3.92;;
20229;SDS011;12195;55.790;37.572;2022-12-29T09:11:04;11.35;;;4.58;;
20229;SDS011;12195;55.790;37.572;2022-12-29T09:13:40;12.05;;;4.45;;
20229;SDS011;12195;55.790;37.572;2022-12-29T09:16:12;10.38;;;4.72;;
20229;SDS011;12195;55.790;37.572;2022-12-29T09:18:45;10.53;;;3.95;;
20229;SDS011;12195;55.790;37.572;2022-12-29T09:21:18;11.53;;;4.30;;
20229;SDS011;12195;55.790;37.572;2022-12-29T09:23:50;8.90;;;4.20;;
20229;SDS011;12195;55.790;37.572;2022-12-29T09:26:22;16.27;;;5.60;;
20229;SDS011;12195;55.790;37.572;2022-12-29T09:28:55;12.35;;;4.40;;
20229;SDS011;12195;55.790;37.572;2022-12-29T09:31:27;14.05;;;4.00;;
20229;SDS011;12195;55.790;37.572;2022-12-29T09:34:00;11.35;;;4.85;;
20229;SDS011;12195;55.790;37.572;2022-12-29T09:36:32;10.15;;;4.30;;
20229;SDS011;12195;55.790;37.572;2022-12-29T09:39:05;20.30;;;6.12;;
20229;SDS011;12195;55.790;37.572;2022-12-29T09:41:45;17.02;;;4.92;;
20229;SDS011;12195;55.790;37.572;2022-12-29T09:46:53;9.13;;;4.90;;
20229;SDS011;12195;55.790;37.572;2022-12-29T09:52:14;13.83;;;5.55;;
20229;SDS011;12195;55.790;37.572;2022-12-29T09:55:00;12.07;;;5.25;;
20229;SDS011;12195;55.790;37.572;2022-12-29T09:57:43;9.55;;;5.05;;
20229;SDS011;12195;55.790;37.572;2022-12-29T10:00:20;10.53;;;5.00;;
20229;SDS011;12195;55.790;37.572;2022-12-29T10:02:55;16.52;;;5.80;;
20229;SDS011;12195;55.790;37.572;2022-12-29T10:05:36;15.72;;;6.40;;
20229;SDS011;12195;55.790;37.572;2022-12-29T10:11:24;16.40;;;5.30;;
20229;SDS011;12195;55.790;37.572;2022-12-29T10:22:57;18.12;;;6.10;;
20229;SDS011;12195;55.790;37.572;2022-12-29T10:25:37;18.30;;;6.25;;
20229;SDS011;12195;55.790;37.572;2022-12-29T10:28:15;11.12;;;5.90;;
20229;SDS011;12195;55.790;37.572;2022-12-29T10:30:53;26.02;;;8.08;;
20229;SDS011;12195;55.790;37.572;2022-12-29T10:33:32;16.65;;;7.00;;
20229;SDS011;12195;55.790;37.572;2022-12-29T10:36:10;16.02;;;6.47;;
20229;SDS011;12195;55.790;37.572;2022-12-29T10:38:51;15.83;;;6.92;;
20229;SDS011;12195;55.790;37.572;2022-12-29T10:41:25;13.43;;;6.70;;
20229;SDS011;12195;55.790;37.572;2022-12-29T10:43:59;15.75;;;6.58;;
20229;SDS011;12195;55.790;37.572;2022-12-29T10:49:10;18.27;;;7.10;;
20229;SDS011;12195;55.790;37.572;2022-12-29T10:51:46;16.50;;;6.37;;
20229;SDS011;12195;55.790;37.572;2022-12-29T10:54:23;17.15;;;6.50;;
20229;SDS011;12195;55.790;37.572;2022-12-29T10:57:09;12.93;;;5.90;;
20229;SDS011;12195;55.790;37.572;2022-12-29T10:59:43;10.53;;;6.53;;
20229;SDS011;12195;55.790;37.572;2022-12-29T11:05:18;17.00;;;6.03;;
20229;SDS011;12195;55.790;37.572;2022-12-29T11:07:50;15.48;;;6.95;;
20229;SDS011;12195;55.790;37.572;2022-12-29T11:10:35;27.98;;;8.08;;
20229;SDS011;12195;55.790;37.572;2022-12-29T11:13:15;12.73;;;6.58;;
20229;SDS011;12195;55.790;37.572;2022-12-29T11:15:51;13.58;;;5.72;;
20229;SDS011;12195;55.790;37.572;2022-12-29T11:18:25;10.13;;;5.20;;
20229;SDS011;12195;55.790;37.572;2022-12-29T11:24:01;14.87;;;5.45;;
20229;SDS011;12195;55.790;37.572;2022-12-29T11:26:35;11.40;;;5.08;;
20229;SDS011;12195;55.790;37.572;2022-12-29T11:34:33;23.20;;;6.95;;
20229;SDS011;12195;55.790;37.572;2022-12-29T11:37:14;16.82;;;7.58;;
20229;SDS011;12195;55.790;37.572;2022-12-29T11:39:58;16.82;;;7.12;;
20229;SDS011;12195;55.790;37.572;2022-12-29T11:42:48;17.40;;;7.28;;
20229;SDS011;12195;55.790;37.572;2022-12-29T11:45:29;17.57;;;7.92;;
20229;SDS011;12195;55.790;37.572;2022-12-29T11:48:00;15.30;;;7.60;;
20229;SDS011;12195;55.790;37.572;2022-12-29T11:50:35;28.50;;;9.08;;
20229;SDS011;12195;55.790;37.572;2022-12-29T11:55:55;17.95;;;7.95;;
20229;SDS011;12195;55.790;37.572;2022-12-29T11:58:29;13.35;;;7.87;;
20229;SDS011;12195;55.790;37.572;2022-12-29T12:04:01;12.05;;;6.55;;
20229;SDS011;12195;55.790;37.572;2022-12-29T12:06:36;19.77;;;6.50;;
20229;SDS011;12195;55.790;37.572;2022-12-29T12:09:19;17.77;;;7.62;;
20229;SDS011;12195;55.790;37.572;2022-12-29T12:12:03;16.40;;;7.50;;
20229;SDS011;12195;55.790;37.572;2022-12-29T12:14:46;13.62;;;7.35;;
20229;SDS011;12195;55.790;37.572;2022-12-29T12:20:22;13.88;;;7.42;;
20229;SDS011;12195;55.790;37.572;2022-12-29T12:23:01;10.00;;;5.92;;
20229;SDS011;12195;55.790;37.572;2022-12-29T12:25:52;14.58;;;6.30;;
20229;SDS011;12195;55.790;37.572;2022-12-29T12:34:20;13.78;;;6.75;;
20229;SDS011;12195;55.790;37.572;2022-12-29T12:37:09;17.65;;;7.50;;
20229;SDS011;12195;55.790;37.572;2022-12-29T12:39:44;16.82;;;7.28;;
20229;SDS011;12195;55.790;37.572;2022-12-29T12:42:23;16.97;;;8.10;;
20229;SDS011;12195;55.790;37.572;2022-12-29T12:47:57;16.65;;;7.50;;
20229;SDS011;12195;55.790;37.572;2022-12-29T12:50:45;15.53;;;6.65;;
20229;SDS011;12195;55.790;37.572;2022-12-29T13:04:39;13.55;;;7.95;;
20229;SDS011;12195;55.790;37.572;2022-12-29T13:10:02;13.22;;;6.65;;
20229;SDS011;12195;55.790;37.572;2022-12-29T13:15:51;18.25;;;7.62;;
20229;SDS011;12195;55.790;37.572;2022-12-29T13:18:41;17.82;;;7.20;;
20229;SDS011;12195;55.790;37.572;2022-12-29T13:21:22;14.87;;;7.58;;
20229;SDS011;12195;55.790;37.572;2022-12-29T13:24:02;13.45;;;7.33;;
20229;SDS011;12195;55.790;37.572;2022-12-29T13:26:36;15.53;;;7.40;;
20229;SDS011;12195;55.790;37.572;2022-12-29T13:34:56;22.73;;;7.55;;
20229;SDS011;12195;55.790;37.572;2022-12-29T13:37:41;17.85;;;7.83;;
20229;SDS011;12195;55.790;37.572;2022-12-29T13:40:14;26.12;;;7.15;;
20229;SDS011;12195;55.790;37.572;2022-12-29T13:42:49;16.65;;;7.62;;
20229;SDS011;12195;55.790;37.572;2022-12-29T13:45:24;18.95;;;8.18;;
20229;SDS011;12195;55.790;37.572;2022-12-29T13:48:10;20.75;;;7.22;;
20229;SDS011;12195;55.790;37.572;2022-12-29T13:50:43;11.45;;;5.90;;
20229;SDS011;12195;55.790;37.572;2022-12-29T14:01:32;13.93;;;6.67;;
20229;SDS011;12195;55.790;37.572;2022-12-29T14:04:11;21.97;;;8.63;;
20229;SDS011;12195;55.790;37.572;2022-12-29T14:06:44;16.87;;;8.03;;
20229;SDS011;12195;55.790;37.572;2022-12-29T14:09:34;16.02;;;7.15;;
20229;SDS011;12195;55.790;37.572;2022-12-29T14:12:20;13.90;;;7.35;;
20229;SDS011;12195;55.790;37.572;2022-12-29T14:18:02;19.98;;;9.40;;
20229;SDS011;12195;55.790;37.572;2022-12-29T14:20:35;17.90;;;8.45;;
20229;SDS011;12195;55.790;37.572;2022-12-29T14:25:54;17.55;;;8.30;;
20229;SDS011;12195;55.790;37.572;2022-12-29T14:28:34;16.90;;;8.35;;
20229;SDS011;12195;55.790;37.572;2022-12-29T14:39:37;19.70;;;8.53;;
20229;SDS011;12195;55.790;37.572;2022-12-29T14:42:14;15.83;;;8.65;;
20229;SDS011;12195;55.790;37.572;2022-12-29T14:44:49;16.20;;;7.92;;
20229;SDS011;12195;55.790;37.572;2022-12-29T14:47:41;22.62;;;8.43;;
20229;SDS011;12195;55.790;37.572;2022-12-29T14:50:17;22.40;;;8.48;;
20229;SDS011;12195;55.790;37.572;2022-12-29T14:52:56;17.42;;;8.20;;
20229;SDS011;12195;55.790;37.572;2022-12-29T14:58:18;22.82;;;8.33;;
20229;SDS011;12195;55.790;37.572;2022-12-29T15:00:52;17.12;;;8.48;;
20229;SDS011;12195;55.790;37.572;2022-12-29T15:03:31;26.50;;;9.18;;
20229;SDS011;12195;55.790;37.572;2022-12-29T15:06:05;33.95;;;9.45;;
20229;SDS011;12195;55.790;37.572;2022-12-29T15:08:50;27.27;;;10.20;;
20229;SDS011;12195;55.790;37.572;2022-12-29T15:14:51;20.52;;;9.30;;
20229;SDS011;12195;55.790;37.572;2022-12-29T15:17:11;30.45;;;9.95;;
20229;SDS011;12195;55.790;37.572;2022-12-29T15:19:54;20.72;;;10.25;;
20229;SDS011;12195;55.790;37.572;2022-12-29T15:22:28;31.52;;;10.32;;
20229;SDS011;12195;55.790;37.572;2022-12-29T15:25:01;28.40;;;10.13;;
20229;SDS011;12195;55.790;37.572;2022-12-29T15:27:34;33.35;;;11.22;;
20229;SDS011;12195;55.790;37.572;2022-12-29T15:30:11;25.02;;;9.65;;
20229;SDS011;12195;55.790;37.572;2022-12-29T15:32:43;26.12;;;10.35;;
20229;SDS011;12195;55.790;37.572;2022-12-29T15:38:14;25.10;;;9.95;;
20229;SDS011;12195;55.790;37.572;2022-12-29T15:40:54;18.55;;;9.98;;
20229;SDS011;12195;55.790;37.572;2022-12-29T15:43:41;30.32;;;13.88;;
20229;SDS011;12195;55.790;37.572;2022-12-29T15:46:14;23.83;;;10.70;;
20229;SDS011;12195;55.790;37.572;2022-12-29T15:48:48;36.13;;;11.73;;
20229;SDS011;12195;55.790;37.572;2022-12-29T15:51:42;28.40;;;11.20;;
20229;SDS011;12195;55.790;37.572;2022-12-29T15:53:58;23.20;;;9.83;;
20229;SDS011;12195;55.790;37.572;2022-12-29T15:56:31;23.05;;;10.03;;
20229;SDS011;12195;55.790;37.572;2022-12-29T15:59:04;19.92;;;10.10;;
20229;SDS011;12195;55.790;37.572;2022-12-29T16:01:38;26.20;;;10.93;;
20229;SDS011;12195;55.790;37.572;2022-12-29T16:04:10;28.67;;;10.55;;
20229;SDS011;12195;55.790;37.572;2022-12-29T16:06:54;20.77;;;10.75;;
20229;SDS011;12195;55.790;37.572;2022-12-29T16:09:18;24.50;;;11.03;;
20229;SDS011;12195;55.790;37.572;2022-12-29T16:11:53;24.27;;;11.73;;
20229;SDS011;12195;55.790;37.572;2022-12-29T16:14:32;23.60;;;11.48;;
20229;SDS011;12195;55.790;37.572;2022-12-29T16:17:15;24.98;;;11.53;;
20229;SDS011;12195;55.790;37.572;2022-12-29T16:19:51;31.27;;;13.15;;
20229;SDS011;12195;55.790;37.572;2022-12-29T16:22:35;25.25;;;12.58;;
20229;SDS011;12195;55.790;37.572;2022-12-29T16:25:10;23.05;;;11.80;;
20229;SDS011;12195;55.790;37.572;2022-12-29T16:27:45;32.55;;;12.75;;
20229;SDS011;12195;55.790;37.572;2022-12-29T16:30:23;27.30;;;12.05;;
20229;SDS011;12195;55.790;37.572;2022-12-29T16:33:03;26.75;;;12.18;;
20229;SDS011;12195;55.790;37.572;2022-12-29T16:35:44;30.20;;;13.50;;
20229;SDS011;12195;55.790;37.572;2022-12-29T16:38:18;34.13;;;13.50;;
20229;SDS011;12195;55.790;37.572;2022-12-29T16:40:55;26.97;;;13.18;;
20229;SDS011;12195;55.790;37.572;2022-12-29T16:43:29;38.28;;;14.28;;
20229;SDS011;12195;55.790;37.572;2022-12-29T16:46:27;32.67;;;13.55;;
20229;SDS011;12195;55.790;37.572;2022-12-29T16:48:46;33.48;;;13.68;;
20229;SDS011;12195;55.790;37.572;2022-12-29T16:51:30;43.63;;;14.60;;
20229;SDS011;12195;55.790;37.572;2022-12-29T16:54:04;30.48;;;13.43;;
20229;SDS011;12195;55.790;37.572;2022-12-29T16:56:37;39.42;;;14.35;;
20229;SDS011;12195;55.790;37.572;2022-12-29T16:59:29;38.90;;;14.65;;
20229;SDS011;12195;55.790;37.572;2022-12-29T17:02:13;31.48;;;14.78;;
20229;SDS011;12195;55.790;37.572;2022-12-29T17:04:46;39.45;;;15.90;;
20229;SDS011;12195;55.790;37.572;2022-12-29T17:07:21;39.58;;;15.85;;
20229;SDS011;12195;55.790;37.572;2022-12-29T17:09:55;38.58;;;15.93;;
20229;SDS011;12195;55.790;37.572;2022-12-29T17:12:27;42.78;;;15.68;;
20229;SDS011;12195;55.790;37.572;2022-12-29T17:15:01;34.98;;;14.73;;
20229;SDS011;12195;55.790;37.572;2022-12-29T17:17:43;38.73;;;14.60;;
20229;SDS011;12195;55.790;37.572;2022-12-29T17:20:19;35.05;;;14.63;;
20229;SDS011;12195;55.790;37.572;2022-12-29T17:22:57;39.05;;;15.28;;
20229;SDS011;12195;55.790;37.572;2022-12-29T17:25:36;41.63;;;15.50;;
20229;SDS011;12195;55.790;37.572;2022-12-29T17:28:14;34.98;;;15.50;;
20229;SDS011;12195;55.790;37.572;2022-12-29T17:30:51;34.38;;;15.72;;